Time;durP1;ratioP1;P1;durP2;ratioP2;P2;SDS_P1;SDS_P2;PMS_P1;PMS_P2;Temp;Humidity;BMP_temperature;BMP_pressure;BME280_temperature;BME280_humidity;BME280_pressure;Samples;Min_cycle;Max_cycle;Signal;HPM_P1;HPM_P2
2024/01/11 00:01:37;;;;;;;10.63;6.97;;;10.40;46.40;;;;;;5066928;28;20529;-79
2024/01/11 00:04:05;;;;;;;7.97;5.73;;;10.40;46.60;;;;;;5062726;28;20473;-78
2024/01/11 00:06:33;;;;;;;9.37;6.03;;;10.50;46.70;;;;;;5066131;28;20441;-79
2024/01/11 00:09:01;;;;;;;8.53;6.63;;;10.40;46.60;;;;;;5068707;28;20485;-77
2024/01/11 00:11:28;;;;;;;8.37;6.30;;;10.40;46.50;;;;;;5067147;28;20537;-77
2024/01/11 00:13:56;;;;;;;7.80;5.63;;;10.40;46.90;;;;;;5061697;28;20845;-78
2024/01/11 00:16:24;;;;;;;9.43;6.33;;;10.50;47.00;;;;;;5065937;28;20440;-78
2024/01/11 00:18:53;;;;;;;9.90;6.27;;;10.50;47.00;;;;;;5070710;28;20974;-78
2024/01/11 00:21:21;;;;;;;8.10;5.90;;;10.50;47.00;;;;;;5061137;28;20530;-78
2024/01/11 00:23:49;;;;;;;7.53;6.00;;;10.50;47.00;;;;;;5060016;28;20577;-80
2024/01/11 00:26:17;;;;;;;8.10;6.00;;;10.50;47.20;;;;;;5064572;28;20481;-79
2024/01/11 00:28:45;;;;;;;9.60;6.17;;;10.50;47.30;;;;;;5063246;28;20499;-78
2024/01/11 00:31:13;;;;;;;9.33;6.17;;;10.50;47.40;;;;;;5061015;28;20541;-78
2024/01/11 00:33:41;;;;;;;8.20;6.37;;;10.50;47.50;;;;;;5068061;28;20434;-78
2024/01/11 00:36:10;;;;;;;8.70;6.43;;;10.50;47.40;;;;;;5062692;28;20529;-79
2024/01/11 00:38:37;;;;;;;9.97;6.60;;;10.50;47.40;;;;;;5062625;28;20541;-76
2024/01/11 00:41:06;;;;;;;10.00;6.43;;;10.50;47.50;;;;;;5060063;28;20524;-77
2024/01/11 00:43:33;;;;;;;10.20;6.80;;;10.50;47.60;;;;;;5056110;28;20441;-76
2024/01/11 00:46:01;;;;;;;9.33;6.20;;;10.50;47.50;;;;;;5062837;28;20462;-76
2024/01/11 00:48:29;;;;;;;10.37;6.70;;;10.50;47.50;;;;;;5065053;28;20987;-76
2024/01/11 00:50:57;;;;;;;9.37;6.23;;;10.50;47.80;;;;;;5055844;28;20431;-75
2024/01/11 00:53:30;;;;;;;9.33;6.07;;;10.50;47.80;;;;;;5062112;28;20437;-76
2024/01/11 00:55:57;;;;;;;9.23;5.80;;;10.50;47.80;;;;;;5064187;28;20445;-77
2024/01/11 00:58:25;;;;;;;9.87;6.20;;;10.50;47.80;;;;;;5063868;28;20489;-77
2024/01/11 01:00:54;;;;;;;9.17;6.47;;;10.50;47.80;;;;;;5064140;28;20532;-76
2024/01/11 01:03:22;;;;;;;7.47;5.80;;;10.50;47.90;;;;;;5065512;28;20442;-76
2024/01/11 01:05:50;;;;;;;11.70;6.57;;;10.50;48.10;;;;;;5059593;28;20430;-77
2024/01/11 01:08:18;;;;;;;7.83;6.30;;;10.50;48.00;;;;;;5065798;28;20502;-76
2024/01/11 01:10:47;;;;;;;12.33;7.03;;;10.50;48.00;;;;;;5055920;28;20577;-77
2024/01/11 01:13:16;;;;;;;8.77;6.30;;;10.50;48.10;;;;;;5066339;28;20490;-77
2024/01/11 01:15:43;;;;;;;9.20;6.50;;;10.50;48.00;;;;;;5059021;28;20456;-77
2024/01/11 01:18:11;;;;;;;9.77;6.63;;;10.50;48.00;;;;;;5058788;28;20466;-76
2024/01/11 01:20:39;;;;;;;10.00;6.67;;;10.50;48.00;;;;;;5064049;28;20438;-77
2024/01/11 01:23:08;;;;;;;9.27;6.97;;;10.50;48.00;;;;;;5065595;28;20579;-76
2024/01/11 01:25:36;;;;;;;10.60;7.30;;;10.50;48.00;;;;;;5061106;28;20480;-78
2024/01/11 01:28:06;;;;;;;9.60;6.60;;;10.40;48.00;;;;;;5060078;28;20489;-77
2024/01/11 01:30:34;;;;;;;9.23;6.60;;;10.50;48.00;;;;;;5054046;28;20474;-78
2024/01/11 01:33:02;;;;;;;12.97;7.83;;;10.50;48.10;;;;;;5066211;28;20439;-77
2024/01/11 01:35:30;;;;;;;11.23;7.63;;;10.50;47.90;;;;;;5060077;28;20503;-77
2024/01/11 01:37:58;;;;;;;10.03;6.73;;;10.50;47.90;;;;;;5066616;28;20465;-77
2024/01/11 01:40:26;;;;;;;10.50;7.17;;;10.40;47.70;;;;;;5075985;28;20438;-79
2024/01/11 01:42:58;;;;;;;12.20;7.30;;;10.40;48.00;;;;;;5086526;28;20438;-77
2024/01/11 01:45:28;;;;;;;12.20;7.60;;;10.40;47.90;;;;;;5076039;28;20434;-77
2024/01/11 01:47:56;;;;;;;10.57;6.60;;;10.40;47.90;;;;;;5065458;28;20536;-78
2024/01/11 01:50:24;;;;;;;11.17;7.23;;;10.40;48.00;;;;;;5070662;28;20491;-78
2024/01/11 01:52:52;;;;;;;11.60;7.33;;;10.40;48.00;;;;;;5056213;28;20442;-77
2024/01/11 01:55:20;;;;;;;14.47;8.90;;;10.40;48.00;;;;;;5065471;28;21007;-80
2024/01/11 01:57:48;;;;;;;11.97;7.40;;;10.40;48.10;;;;;;5065711;28;20465;-77
2024/01/11 02:00:16;;;;;;;10.57;7.13;;;10.40;48.10;;;;;;5067198;28;20442;-76
2024/01/11 02:02:46;;;;;;;12.47;7.60;;;10.40;48.00;;;;;;5063386;28;20436;-76
2024/01/11 02:05:15;;;;;;;16.97;7.50;;;10.40;48.00;;;;;;5067918;28;20445;-78
2024/01/11 02:07:43;;;;;;;13.47;7.90;;;10.40;48.00;;;;;;5071497;28;20471;-78
2024/01/11 02:10:11;;;;;;;13.57;8.17;;;10.40;48.00;;;;;;5060680;28;20496;-77
2024/01/11 02:12:39;;;;;;;14.77;7.40;;;10.40;48.10;;;;;;5071097;28;20482;-76
2024/01/11 02:15:08;;;;;;;12.30;8.00;;;10.40;48.10;;;;;;5069398;28;20959;-77
2024/01/11 02:17:35;;;;;;;13.37;7.40;;;10.40;48.20;;;;;;5066314;28;20501;-77
2024/01/11 02:20:07;;;;;;;12.33;7.17;;;10.40;48.10;;;;;;5085655;28;20426;-77
2024/01/11 02:22:36;;;;;;;12.30;7.60;;;10.40;48.10;;;;;;5066135;28;20460;-77
2024/01/11 02:25:06;;;;;;;12.13;7.70;;;10.40;48.30;;;;;;5064691;28;20537;-77
2024/01/11 02:27:45;;;;;;;10.90;6.83;;;10.40;48.20;;;;;;5060778;28;20565;-77
2024/01/11 02:30:14;;;;;;;14.20;7.90;;;10.40;48.30;;;;;;5057818;28;20470;-77
2024/01/11 02:32:44;;;;;;;11.93;7.50;;;10.30;48.20;;;;;;5069659;28;20450;-78
2024/01/11 02:35:12;;;;;;;11.63;7.30;;;10.30;48.20;;;;;;5068987;28;20450;-77
2024/01/11 02:37:40;;;;;;;10.17;6.77;;;10.30;48.30;;;;;;5060287;28;20466;-78
2024/01/11 02:40:11;;;;;;;11.37;7.10;;;10.30;48.40;;;;;;5071252;28;20495;-77
2024/01/11 02:42:39;;;;;;;11.60;7.60;;;10.30;48.20;;;;;;5065009;28;20442;-78
2024/01/11 02:45:08;;;;;;;10.23;6.97;;;10.30;48.30;;;;;;5068890;28;20449;-76
2024/01/11 02:47:36;;;;;;;10.67;6.87;;;10.30;48.40;;;;;;5067035;28;20473;-75
2024/01/11 02:50:05;;;;;;;11.40;7.23;;;10.30;48.30;;;;;;5059508;28;20519;-76
2024/01/11 02:52:33;;;;;;;12.70;7.87;;;10.30;48.40;;;;;;5056304;28;20476;-76
2024/01/11 02:55:01;;;;;;;13.40;7.43;;;10.30;48.20;;;;;;5067179;28;20442;-76
2024/01/11 02:57:31;;;;;;;11.13;7.27;;;10.30;48.40;;;;;;5071389;28;20516;-76
2024/01/11 02:59:59;;;;;;;12.33;7.97;;;10.30;48.30;;;;;;5070537;28;20434;-78
2024/01/11 03:02:27;;;;;;;10.00;6.60;;;10.30;48.30;;;;;;5059739;28;20452;-75
2024/01/11 03:04:56;;;;;;;12.27;7.60;;;10.20;48.10;;;;;;5062250;28;20557;-77
2024/01/11 03:07:24;;;;;;;18.03;8.47;;;10.20;48.20;;;;;;5056481;28;20453;-76
2024/01/11 03:09:52;;;;;;;11.20;7.40;;;10.20;48.20;;;;;;5061086;28;20532;-79
2024/01/11 03:12:20;;;;;;;12.73;7.93;;;10.20;48.10;;;;;;5063692;28;20530;-78
2024/01/11 03:14:49;;;;;;;12.60;7.60;;;10.20;48.20;;;;;;5061002;28;20485;-77
2024/01/11 03:17:17;;;;;;;15.23;8.13;;;10.20;48.20;;;;;;5068803;28;20533;-76
2024/01/11 03:19:46;;;;;;;11.97;7.47;;;10.20;48.10;;;;;;5067821;28;20449;-77
2024/01/11 03:22:14;;;;;;;18.07;7.87;;;10.20;48.20;;;;;;5068759;28;20536;-76
2024/01/11 03:24:42;;;;;;;11.43;7.00;;;10.20;48.30;;;;;;5066254;28;20477;-78
2024/01/11 03:27:10;;;;;;;9.93;7.00;;;10.20;48.30;;;;;;5066618;28;20530;-76
2024/01/11 03:29:39;;;;;;;13.10;7.83;;;10.20;48.30;;;;;;5070434;28;20450;-77
2024/01/11 03:32:08;;;;;;;11.97;7.90;;;10.20;48.20;;;;;;5063807;28;20561;-77
2024/01/11 03:34:36;;;;;;;13.10;7.60;;;10.10;48.10;;;;;;5056832;28;20446;-77
2024/01/11 03:37:05;;;;;;;13.33;7.93;;;10.20;48.30;;;;;;5065355;28;20446;-76
2024/01/11 03:39:33;;;;;;;11.83;7.70;;;10.20;48.40;;;;;;5073100;28;20462;-77
2024/01/11 03:42:03;;;;;;;12.63;7.60;;;10.10;48.20;;;;;;5055872;28;20470;-77
2024/01/11 03:44:32;;;;;;;10.80;6.80;;;10.10;48.30;;;;;;5064599;28;20550;-76
2024/01/11 03:46:59;;;;;;;13.13;7.60;;;10.10;48.30;;;;;;5070074;28;20433;-77
2024/01/11 03:49:28;;;;;;;12.10;7.17;;;10.10;48.40;;;;;;5072462;28;21037;-77
2024/01/11 03:51:57;;;;;;;11.17;6.97;;;10.10;48.40;;;;;;5067352;28;20481;-77
2024/01/11 03:54:24;;;;;;;13.13;7.67;;;10.10;48.30;;;;;;5063577;28;20852;-77
2024/01/11 03:56:53;;;;;;;14.40;8.00;;;10.10;48.40;;;;;;5061538;28;20447;-77
2024/01/11 03:59:21;;;;;;;12.93;7.80;;;10.10;48.30;;;;;;5064746;28;20465;-76
2024/01/11 04:01:49;;;;;;;11.90;7.50;;;10.10;48.40;;;;;;5070662;28;20449;-76
2024/01/11 04:04:17;;;;;;;14.00;7.87;;;10.10;48.30;;;;;;5072097;28;20466;-76
2024/01/11 04:06:47;;;;;;;13.10;7.73;;;10.10;48.30;;;;;;5059421;28;20442;-77
2024/01/11 04:09:15;;;;;;;12.07;7.87;;;10.10;48.30;;;;;;5058308;28;20497;-77
2024/01/11 04:11:43;;;;;;;14.50;8.37;;;10.10;48.30;;;;;;5062143;28;20498;-77
2024/01/11 04:14:12;;;;;;;11.60;7.60;;;10.10;48.40;;;;;;5068431;28;20460;-77
2024/01/11 04:16:41;;;;;;;15.60;8.93;;;10.10;48.50;;;;;;5062757;28;20454;-76
2024/01/11 04:19:09;;;;;;;12.70;8.07;;;10.10;48.60;;;;;;5055391;28;20569;-77
2024/01/11 04:21:38;;;;;;;15.57;9.00;;;10.10;48.40;;;;;;5059176;28;20523;-77
2024/01/11 04:24:08;;;;;;;15.20;8.07;;;10.10;48.50;;;;;;5059982;28;20501;-77
2024/01/11 04:26:35;;;;;;;15.50;8.63;;;10.10;48.60;;;;;;5056040;28;20549;-77
2024/01/11 04:29:03;;;;;;;11.87;7.70;;;10.10;48.50;;;;;;5052800;28;20462;-76
2024/01/11 04:31:31;;;;;;;13.77;7.97;;;10.10;48.60;;;;;;5052738;28;20478;-77
2024/01/11 04:33:59;;;;;;;15.33;8.87;;;10.10;48.60;;;;;;5062849;28;20525;-77
2024/01/11 04:36:27;;;;;;;12.97;8.00;;;10.10;48.60;;;;;;5063940;28;20529;-77
2024/01/11 04:38:55;;;;;;;14.40;8.50;;;10.10;48.60;;;;;;5062651;28;20484;-77
2024/01/11 04:41:25;;;;;;;12.80;7.27;;;10.10;48.50;;;;;;5070827;28;20442;-77
2024/01/11 04:43:53;;;;;;;12.37;8.10;;;10.10;48.70;;;;;;5057833;28;20455;-76
2024/01/11 04:46:22;;;;;;;14.23;8.40;;;10.10;48.70;;;;;;5057525;28;20438;-76
2024/01/11 04:48:50;;;;;;;12.10;7.27;;;10.10;48.70;;;;;;5071221;28;20472;-76
2024/01/11 04:51:18;;;;;;;13.90;7.90;;;10.10;48.70;;;;;;5067473;28;20523;-76
2024/01/11 04:53:46;;;;;;;16.90;8.70;;;10.10;49.00;;;;;;5060737;28;20480;-77
2024/01/11 04:56:15;;;;;;;15.33;8.00;;;10.10;48.90;;;;;;5067543;28;20438;-77
2024/01/11 04:58:45;;;;;;;13.07;8.40;;;10.10;48.70;;;;;;5071398;28;20481;-76
2024/01/11 05:01:13;;;;;;;12.90;7.77;;;10.10;48.90;;;;;;5067424;28;20461;-76
2024/01/11 05:03:41;;;;;;;12.53;7.93;;;10.10;49.10;;;;;;5074586;28;20439;-77
2024/01/11 05:06:09;;;;;;;13.73;8.17;;;10.10;49.00;;;;;;5082042;28;20991;-77
2024/01/11 05:08:37;;;;;;;14.00;8.10;;;10.10;49.10;;;;;;5073713;28;20489;-76
2024/01/11 05:11:05;;;;;;;13.43;7.90;;;10.10;49.10;;;;;;5064429;28;20557;-76
2024/01/11 05:13:34;;;;;;;12.87;7.97;;;10.10;49.00;;;;;;5061231;28;20469;-78
2024/01/11 05:16:04;;;;;;;14.27;8.07;;;10.10;48.90;;;;;;5062146;28;20443;-76
2024/01/11 05:18:31;;;;;;;15.63;8.80;;;10.10;49.10;;;;;;5026162;28;1236993;-76
2024/01/11 05:21:02;;;;;;;14.47;8.80;;;10.10;49.30;;;;;;5067181;22;20217;-77
2024/01/11 05:23:30;;;;;;;13.33;8.27;;;10.10;49.10;;;;;;5045473;28;20504;-77
2024/01/11 05:25:58;;;;;;;15.60;8.33;;;10.10;49.10;;;;;;5048163;28;20454;-76
2024/01/11 05:28:26;;;;;;;15.27;8.93;;;10.10;49.20;;;;;;5049315;28;20438;-77
2024/01/11 05:30:54;;;;;;;18.23;9.47;;;10.20;50.00;;;;;;5047703;28;20570;-77
2024/01/11 05:33:24;;;;;;;13.80;8.20;;;10.20;49.30;;;;;;5049603;28;20462;-77
2024/01/11 05:35:53;;;;;;;17.70;8.73;;;10.20;49.30;;;;;;5048535;28;20541;-77
2024/01/11 05:38:21;;;;;;;15.10;8.73;;;10.20;49.50;;;;;;5050142;28;20446;-77
2024/01/11 05:40:49;;;;;;;15.63;8.57;;;10.20;49.30;;;;;;5049612;28;20467;-77
2024/01/11 05:43:17;;;;;;;14.50;8.33;;;10.20;49.40;;;;;;5044177;28;20542;-77
2024/01/11 05:45:45;;;;;;;18.10;9.13;;;10.20;49.40;;;;;;5049497;28;20963;-77
2024/01/11 05:48:15;;;;;;;17.43;9.30;;;10.20;49.50;;;;;;5049178;28;20468;-76
2024/01/11 05:50:45;;;;;;;16.20;9.30;;;10.20;49.40;;;;;;5048879;28;20494;-77
2024/01/11 05:53:13;;;;;;;14.27;8.50;;;10.20;49.50;;;;;;5044810;28;20544;-77
2024/01/11 05:55:41;;;;;;;15.47;8.97;;;10.20;49.50;;;;;;5038423;28;20469;-78
2024/01/11 05:58:08;;;;;;;16.07;9.07;;;10.20;49.40;;;;;;5049052;28;20538;-77
2024/01/11 06:00:36;;;;;;;16.27;9.50;;;10.20;49.70;;;;;;5048496;28;20497;-77
2024/01/11 06:03:05;;;;;;;17.20;9.30;;;10.20;49.60;;;;;;5049247;28;20446;-78
2024/01/11 06:05:32;;;;;;;16.03;8.97;;;10.20;49.60;;;;;;5046184;28;20447;-77
2024/01/11 06:08:02;;;;;;;16.33;9.30;;;10.20;49.70;;;;;;5049198;28;20434;-78
2024/01/11 06:10:30;;;;;;;16.27;9.60;;;10.20;49.60;;;;;;5048295;28;20554;-78
2024/01/11 06:12:59;;;;;;;19.73;9.97;;;10.20;49.60;;;;;;5049548;28;20516;-78
2024/01/11 06:15:27;;;;;;;16.77;9.13;;;10.20;49.70;;;;;;5045232;28;20490;-78
2024/01/11 06:17:55;;;;;;;14.60;9.17;;;10.20;49.60;;;;;;5048569;28;20446;-77
2024/01/11 06:20:23;;;;;;;14.27;8.40;;;10.20;49.80;;;;;;5048715;28;20469;-77
2024/01/11 06:22:51;;;;;;;15.80;8.80;;;10.20;49.90;;;;;;5045193;28;20456;-77
2024/01/11 06:25:21;;;;;;;17.00;9.30;;;10.20;50.00;;;;;;5049270;28;21025;-77
2024/01/11 06:27:49;;;;;;;15.80;9.10;;;10.20;49.90;;;;;;5048645;28;20477;-77
2024/01/11 06:30:17;;;;;;;14.47;9.07;;;10.20;50.00;;;;;;5045357;28;20506;-77
2024/01/11 06:32:45;;;;;;;20.13;10.10;;;10.20;50.00;;;;;;5046909;28;20502;-78
2024/01/11 06:35:14;;;;;;;16.93;9.70;;;10.20;49.90;;;;;;5049701;28;20469;-77
2024/01/11 06:37:42;;;;;;;16.33;9.33;;;10.20;49.90;;;;;;5049535;28;20522;-77
2024/01/11 06:40:10;;;;;;;22.23;9.73;;;10.20;50.10;;;;;;5048574;28;20462;-78
2024/01/11 06:42:39;;;;;;;19.33;10.50;;;10.20;50.10;;;;;;5051570;28;20523;-80
2024/01/11 06:45:08;;;;;;;17.03;9.30;;;10.20;50.10;;;;;;5049910;28;20980;-79
2024/01/11 06:47:36;;;;;;;15.07;9.07;;;10.20;50.10;;;;;;5052918;28;20434;-77
2024/01/11 06:50:05;;;;;;;17.10;9.63;;;10.20;50.20;;;;;;5052275;28;20454;-76
2024/01/11 06:52:33;;;;;;;16.80;9.20;;;10.20;50.20;;;;;;5052526;28;20466;-80
2024/01/11 06:55:02;;;;;;;18.00;10.07;;;10.20;50.20;;;;;;5052487;28;20446;-79
2024/01/11 06:57:30;;;;;;;19.87;10.63;;;10.30;50.20;;;;;;5053115;28;20443;-79
2024/01/11 06:59:59;;;;;;;16.80;9.77;;;10.20;50.30;;;;;;5050828;28;20536;-78
2024/01/11 07:02:27;;;;;;;17.07;9.60;;;10.20;50.20;;;;;;5052378;28;20439;-78
2024/01/11 07:04:56;;;;;;;18.00;10.00;;;10.30;50.50;;;;;;5052179;28;20496;-78
2024/01/11 07:07:24;;;;;;;18.00;9.93;;;10.30;50.40;;;;;;5052684;28;20457;-79
2024/01/11 07:09:55;;;;;;;20.63;10.60;;;10.20;50.20;;;;;;5052327;28;20509;-77
2024/01/11 07:12:23;;;;;;;18.80;10.30;;;10.20;50.30;;;;;;5047249;28;20467;-78
2024/01/11 07:14:51;;;;;;;19.80;10.20;;;10.30;50.30;;;;;;5049161;28;21016;-78
2024/01/11 07:17:22;;;;;;;19.70;10.40;;;10.30;50.40;;;;;;5052323;28;20481;-78
2024/01/11 07:19:50;;;;;;;18.93;10.77;;;10.30;50.30;;;;;;5050108;28;20466;-78
2024/01/11 07:22:18;;;;;;;19.57;11.07;;;10.30;50.40;;;;;;5045998;28;20559;-79
2024/01/11 07:24:46;;;;;;;21.87;10.83;;;10.20;50.40;;;;;;5052371;28;20549;-79
2024/01/11 07:27:15;;;;;;;19.40;10.20;;;10.30;50.40;;;;;;5052999;28;20443;-79
2024/01/11 07:29:43;;;;;;;20.60;11.17;;;10.30;50.40;;;;;;5052549;28;20877;-78
2024/01/11 07:32:11;;;;;;;21.00;10.80;;;10.30;50.50;;;;;;5045547;28;20480;-79
2024/01/11 07:34:41;;;;;;;19.30;9.83;;;10.30;50.40;;;;;;5052893;28;20521;-78
2024/01/11 07:37:09;;;;;;;20.00;10.50;;;10.30;50.50;;;;;;5052289;28;20439;-78
2024/01/11 07:39:37;;;;;;;20.30;11.30;;;10.30;50.40;;;;;;5044849;28;20473;-76
2024/01/11 07:42:05;;;;;;;24.90;11.30;;;10.30;50.50;;;;;;5043162;28;20517;-76
2024/01/11 07:44:33;;;;;;;20.77;10.90;;;10.30;50.50;;;;;;5051316;28;20430;-76
2024/01/11 07:47:01;;;;;;;23.73;11.53;;;10.30;50.60;;;;;;5042227;28;20436;-80
2024/01/11 07:49:30;;;;;;;20.13;10.80;;;10.30;50.60;;;;;;5048386;28;20534;-77
2024/01/11 07:51:59;;;;;;;24.20;11.70;;;10.30;50.50;;;;;;5047184;28;20434;-77
2024/01/11 07:54:27;;;;;;;21.83;11.40;;;10.30;50.70;;;;;;5064658;28;20465;-78
2024/01/11 07:56:55;;;;;;;19.60;11.20;;;10.30;50.60;;;;;;5045331;28;20466;-79
2024/01/11 07:59:23;;;;;;;21.40;10.60;;;10.30;50.60;;;;;;5058331;28;20496;-77
2024/01/11 08:01:52;;;;;;;18.60;10.70;;;10.40;50.80;;;;;;5054530;28;20461;-76
2024/01/11 08:04:20;;;;;;;21.27;11.83;;;10.30;50.70;;;;;;5054645;28;20441;-77
2024/01/11 08:06:48;;;;;;;23.20;11.83;;;10.40;50.80;;;;;;5059683;28;20437;-77
2024/01/11 08:09:18;;;;;;;24.67;11.03;;;10.40;50.90;;;;;;5059689;28;20499;-76
2024/01/11 08:11:46;;;;;;;22.00;11.70;;;10.40;50.80;;;;;;5054002;28;20521;-77
2024/01/11 08:14:18;;;;;;;20.30;10.80;;;10.40;51.00;;;;;;5063314;28;20550;-78
2024/01/11 08:16:46;;;;;;;23.23;12.13;;;10.40;50.90;;;;;;5060399;28;20879;-78
2024/01/11 08:19:14;;;;;;;23.40;11.60;;;10.40;50.90;;;;;;5060010;28;20454;-76
2024/01/11 08:21:42;;;;;;;21.23;11.03;;;10.50;51.00;;;;;;5058046;28;20426;-75
2024/01/11 08:24:10;;;;;;;23.33;11.90;;;10.50;50.90;;;;;;5060727;28;20466;-75
2024/01/11 08:26:39;;;;;;;20.50;10.80;;;10.50;51.00;;;;;;5061308;28;20438;-77
2024/01/11 08:29:09;;;;;;;21.73;11.73;;;10.40;51.00;;;;;;5062043;28;20426;-74
2024/01/11 08:31:37;;;;;;;20.13;11.03;;;10.50;51.20;;;;;;5056722;28;20458;-77
2024/01/11 08:34:07;;;;;;;24.23;11.13;;;10.50;51.00;;;;;;5057743;28;20463;-76
2024/01/11 08:36:35;;;;;;;19.23;9.83;;;10.50;51.10;;;;;;5058616;28;20844;-77
2024/01/11 08:39:05;;;;;;;23.00;11.60;;;10.50;51.10;;;;;;5060374;28;20506;-76
2024/01/11 08:41:33;;;;;;;25.03;12.30;;;10.60;51.10;;;;;;5058849;28;20453;-76
2024/01/11 08:44:05;;;;;;;26.00;13.40;;;10.60;51.30;;;;;;5061964;28;20442;-77
2024/01/11 08:46:34;;;;;;;26.60;14.00;;;10.60;51.20;;;;;;5060793;28;20489;-77
2024/01/11 08:49:03;;;;;;;28.27;14.53;;;10.60;51.30;;;;;;5060696;28;20524;-77
2024/01/11 08:51:32;;;;;;;27.77;14.83;;;10.60;51.20;;;;;;5060083;28;20436;-76
2024/01/11 08:53:59;;;;;;;23.80;13.80;;;10.60;51.30;;;;;;5059199;28;21047;-75
2024/01/11 08:56:27;;;;;;;30.37;15.47;;;10.70;51.30;;;;;;5058987;28;20470;-77
2024/01/11 08:58:58;;;;;;;28.77;16.03;;;10.70;51.30;;;;;;5067977;28;20442;-77
2024/01/11 09:01:29;;;;;;;33.90;17.70;;;10.70;51.40;;;;;;5053975;28;20443;-74
2024/01/11 09:03:57;;;;;;;33.80;17.60;;;10.70;51.40;;;;;;5051953;28;20478;-77
2024/01/11 09:06:24;;;;;;;34.37;17.27;;;10.70;51.40;;;;;;5052776;28;20454;-75
2024/01/11 09:08:53;;;;;;;34.63;17.93;;;10.80;51.50;;;;;;5053043;28;20500;-76
2024/01/11 09:11:21;;;;;;;36.87;18.10;;;10.80;51.50;;;;;;5052745;28;20442;-75
2024/01/11 09:13:50;;;;;;;34.20;18.27;;;10.80;51.90;;;;;;5050880;28;20462;-76
2024/01/11 09:16:18;;;;;;;40.20;20.70;;;10.90;51.40;;;;;;5059576;28;20451;-76
2024/01/11 09:18:47;;;;;;;44.43;21.83;;;10.90;51.30;;;;;;5059067;28;20445;-76
2024/01/11 09:21:16;;;;;;;40.13;21.00;;;10.90;51.20;;;;;;5052269;28;20462;-76
2024/01/11 09:23:44;;;;;;;42.20;22.20;;;10.90;51.80;;;;;;5052939;28;20489;-76
2024/01/11 09:26:12;;;;;;;41.60;22.23;;;10.90;51.10;;;;;;5052416;28;20945;-76
2024/01/11 09:28:40;;;;;;;44.47;22.20;;;11.00;51.30;;;;;;5036214;28;20443;-76
2024/01/11 09:31:08;;;;;;;46.53;22.90;;;11.00;51.10;;;;;;5052257;28;20629;-76
2024/01/11 09:33:36;;;;;;;47.00;23.13;;;11.00;51.10;;;;;;5052851;28;20501;-75
2024/01/11 09:36:07;;;;;;;41.43;21.80;;;11.00;51.00;;;;;;5051641;28;20521;-77
2024/01/11 09:38:35;;;;;;;45.27;22.50;;;11.00;51.00;;;;;;5034953;28;20435;-76
2024/01/11 09:41:08;;;;;;;48.83;23.43;;;11.00;51.10;;;;;;5043731;28;20488;-76
2024/01/11 09:43:40;;;;;;;43.50;23.30;;;11.10;51.20;;;;;;5058797;28;20425;-76
2024/01/11 09:46:08;;;;;;;45.17;23.10;;;11.10;51.40;;;;;;5072964;28;20437;-77
2024/01/11 09:48:37;;;;;;;46.00;24.07;;;11.10;51.40;;;;;;5054037;28;20430;-77
2024/01/11 09:51:07;;;;;;;48.87;23.70;;;11.20;51.60;;;;;;5050633;28;20462;-77
2024/01/11 09:53:36;;;;;;;46.90;24.67;;;11.20;51.60;;;;;;5049523;28;20477;-77
2024/01/11 09:56:04;;;;;;;46.13;24.17;;;11.20;51.60;;;;;;5051121;28;20814;-77
2024/01/11 09:58:33;;;;;;;46.60;23.60;;;11.30;51.70;;;;;;5050556;28;20489;-77
2024/01/11 10:01:01;;;;;;;46.27;24.83;;;11.30;51.70;;;;;;5049660;28;20562;-77
2024/01/11 10:03:29;;;;;;;48.07;24.67;;;11.30;51.80;;;;;;5049826;28;20466;-77
2024/01/11 10:05:59;;;;;;;44.27;23.87;;;11.30;51.80;;;;;;5050589;28;20447;-77
2024/01/11 10:08:29;;;;;;;50.23;24.97;;;11.30;51.90;;;;;;5051165;28;20427;-76
2024/01/11 10:10:57;;;;;;;48.17;24.30;;;11.40;51.90;;;;;;5049951;28;20490;-76
2024/01/11 10:13:28;;;;;;;51.77;24.80;;;11.40;51.90;;;;;;5050486;28;20497;-76
2024/01/11 10:16:07;;;;;;;44.30;23.93;;;11.40;51.90;;;;;;5050726;28;20438;-77
2024/01/11 10:18:35;;;;;;;46.33;24.10;;;11.40;51.90;;;;;;5054643;28;20474;-76
2024/01/11 10:21:03;;;;;;;46.50;23.60;;;11.50;52.00;;;;;;5053612;28;20465;-76
2024/01/11 10:23:34;;;;;;;43.50;23.03;;;11.50;52.00;;;;;;5054118;28;20449;-76
2024/01/11 10:26:02;;;;;;;43.40;22.80;;;11.50;51.90;;;;;;5054156;28;20522;-76
2024/01/11 10:28:30;;;;;;;40.57;22.03;;;11.50;52.00;;;;;;5054476;28;20532;-76
2024/01/11 10:30:58;;;;;;;46.20;22.70;;;11.50;52.10;;;;;;5054001;28;20461;-76
2024/01/11 10:33:26;;;;;;;43.80;22.93;;;11.60;52.20;;;;;;5055045;28;20442;-76
2024/01/11 10:35:54;;;;;;;39.37;22.13;;;11.60;52.20;;;;;;5054467;28;20489;-77
2024/01/11 10:38:22;;;;;;;43.23;21.90;;;11.60;52.20;;;;;;5053886;28;20506;-76
2024/01/11 10:40:51;;;;;;;42.43;22.33;;;11.60;52.20;;;;;;5053353;28;20493;-77
2024/01/11 10:43:21;;;;;;;36.57;20.80;;;11.60;52.20;;;;;;5053717;28;20529;-77
2024/01/11 10:45:53;;;;;;;40.73;22.00;;;11.60;52.30;;;;;;5053592;28;20541;-76
2024/01/11 10:48:22;;;;;;;37.50;20.47;;;11.60;52.30;;;;;;5053705;28;20426;-77
2024/01/11 10:50:56;;;;;;;42.27;21.00;;;11.60;52.40;;;;;;5053078;28;20454;-77
2024/01/11 10:53:28;;;;;;;41.90;21.43;;;11.60;52.40;;;;;;5052693;28;20437;-76
2024/01/11 10:56:00;;;;;;;38.47;21.07;;;11.60;52.40;;;;;;5053352;28;20490;-77
2024/01/11 10:58:28;;;;;;;41.47;20.60;;;11.70;52.60;;;;;;5053315;28;20430;-76
2024/01/11 11:00:56;;;;;;;39.53;20.83;;;11.70;52.60;;;;;;5053216;28;20465;-77
2024/01/11 11:03:24;;;;;;;36.97;19.80;;;11.70;52.50;;;;;;5053657;28;20438;-76
2024/01/11 11:05:53;;;;;;;37.33;19.83;;;11.70;52.50;;;;;;5054137;28;20441;-76
2024/01/11 11:08:22;;;;;;;32.33;18.07;;;11.80;52.70;;;;;;5049932;28;20444;-76
2024/01/11 11:10:49;;;;;;;38.60;20.70;;;11.80;52.70;;;;;;5054445;28;20454;-76
2024/01/11 11:13:19;;;;;;;34.60;18.60;;;11.90;52.70;;;;;;5048094;28;20462;-75
2024/01/11 11:15:48;;;;;;;37.67;19.90;;;11.90;52.60;;;;;;5053556;28;20510;-77
2024/01/11 11:18:18;;;;;;;31.10;17.43;;;11.90;52.80;;;;;;5046111;28;20457;-77
2024/01/11 11:21:24;;;;;;;49.57;22.93;;;11.90;53.00;;;;;;5094025;23;20584;-77
2024/01/11 11:27:40;;;;;;;54.33;22.87;;;6.80;57.60;;;;;;5005321;28;20494;-77
2024/01/11 11:30:41;;;;;;;54.83;23.13;;;5.70;61.70;;;;;;5025074;28;20458;-78
2024/01/11 11:33:23;;;;;;;59.87;23.47;;;5.50;62.60;;;;;;5029607;28;20438;-79
2024/01/11 11:39:12;;;;;;;63.10;25.00;;;4.70;68.60;;;;;;5012559;28;20429;-80
2024/01/11 11:41:44;;;;;;;63.20;25.90;;;5.00;68.80;;;;;;5016156;28;20460;-79
2024/01/11 11:44:41;;;;;;;63.00;25.53;;;5.10;68.60;;;;;;5074468;28;20444;-78
2024/01/11 11:47:45;;;;;;;52.83;23.43;;;5.10;69.20;;;;;;5078748;28;20429;-83
2024/01/11 11:50:23;;;;;;;53.23;22.10;;;5.00;69.80;;;;;;5079217;28;20553;-82
2024/01/11 11:52:55;;;;;;;52.33;20.63;;;5.00;70.30;;;;;;5082758;28;20437;-84
2024/01/11 11:58:39;;;;;;;53.70;21.43;;;5.00;72.20;;;;;;5067886;28;20495;-75
2024/01/11 12:01:07;;;;;;;46.40;20.33;;;6.30;78.30;;;;;;5079775;28;20457;-75
2024/01/11 12:03:37;;;;;;;43.70;20.10;;;7.20;73.90;;;;;;5080339;28;20436;-75
2024/01/11 12:06:06;;;;;;;46.27;20.37;;;7.80;69.30;;;;;;5082850;28;20414;-77
2024/01/11 12:08:34;;;;;;;45.63;19.87;;;8.30;66.30;;;;;;5078309;28;20493;-74
2024/01/11 12:11:02;;;;;;;47.60;20.60;;;8.60;64.50;;;;;;5073341;28;20485;-75
2024/01/11 12:13:31;;;;;;;40.13;19.83;;;8.90;62.80;;;;;;5074107;28;20469;-76
2024/01/11 12:15:58;;;;;;;47.90;20.70;;;9.20;61.90;;;;;;5072907;28;20469;-74
2024/01/11 12:18:26;;;;;;;44.60;20.20;;;9.40;60.80;;;;;;5080381;28;20425;-75
2024/01/11 12:20:56;;;;;;;41.10;19.60;;;9.60;59.90;;;;;;5077001;28;20465;-76
2024/01/11 12:23:24;;;;;;;41.13;19.93;;;9.70;58.90;;;;;;5083458;28;20525;-76
2024/01/11 12:25:51;;;;;;;39.43;19.20;;;9.70;58.90;;;;;;5079575;28;20478;-76
2024/01/11 12:28:19;;;;;;;42.23;19.70;;;9.80;58.10;;;;;;5076354;28;20430;-75
2024/01/11 12:30:47;;;;;;;43.03;20.23;;;9.80;57.60;;;;;;5081218;28;20450;-76
2024/01/11 12:33:15;;;;;;;38.90;19.90;;;9.80;57.40;;;;;;5067248;28;20457;-74
2024/01/11 12:35:43;;;;;;;37.23;18.40;;;9.80;57.40;;;;;;5067192;28;20457;-75
2024/01/11 12:38:13;;;;;;;37.33;18.40;;;9.80;57.30;;;;;;5067367;28;20456;-75
2024/01/11 12:40:41;;;;;;;41.13;18.73;;;9.80;57.40;;;;;;5067275;28;20458;-74
2024/01/11 12:43:09;;;;;;;39.27;19.07;;;9.90;57.20;;;;;;5067444;28;20440;-75
2024/01/11 12:45:38;;;;;;;34.53;17.70;;;9.90;57.10;;;;;;5068386;28;20568;-75
2024/01/11 12:48:08;;;;;;;39.50;18.17;;;9.90;57.30;;;;;;5068108;28;20522;-75
2024/01/11 12:50:37;;;;;;;37.30;20.10;;;9.90;57.00;;;;;;5070224;28;20465;-75
2024/01/11 12:53:06;;;;;;;36.57;18.33;;;10.00;56.10;;;;;;5070032;28;20445;-75